createdAt,value
2023-01-05T00:01:51.794Z,5.99
2023-01-05T00:10:34.873Z,6.06
2023-01-05T00:19:16.771Z,6.10
2023-01-05T00:27:42.117Z,6.11
2023-01-05T00:36:09.685Z,6.16
2023-01-05T00:44:32.765Z,6.19
2023-01-05T00:52:55.887Z,6.22
2023-01-05T01:01:19.255Z,6.26
2023-01-05T01:09:43.235Z,6.35
2023-01-05T01:18:06.351Z,6.45
2023-01-05T01:26:29.190Z,6.49
2023-01-05T01:34:52.409Z,6.52
2023-01-05T01:43:19.841Z,6.57
2023-01-05T01:51:48.102Z,6.62
2023-01-05T02:00:14.985Z,6.66
2023-01-05T02:08:40.887Z,6.73
2023-01-05T02:17:24.141Z,6.77
2023-01-05T02:26:29.894Z,6.83
2023-01-05T02:35:17.274Z,6.89
2023-01-05T02:43:44.828Z,6.91
2023-01-05T02:52:09.535Z,6.91
2023-01-05T03:00:40.215Z,6.93
2023-01-05T03:09:06.666Z,6.96
2023-01-05T03:17:34.079Z,6.97
2023-01-05T03:26:17.021Z,6.97
2023-01-05T03:35:10.514Z,6.96
2023-01-05T03:43:38.455Z,6.95
2023-01-05T03:52:02.527Z,6.99
2023-01-05T04:00:25.853Z,7.00
2023-01-05T04:08:52.566Z,7.00
2023-01-05T04:17:16.258Z,6.98
2023-01-05T04:25:39.366Z,6.98
2023-01-05T04:34:12.061Z,7.00
2023-01-05T04:42:35.159Z,6.98
2023-01-05T04:50:58.578Z,6.98
2023-01-05T04:59:27.589Z,6.98
2023-01-05T05:07:54.066Z,6.99
2023-01-05T05:16:19.691Z,7.00
2023-01-05T05:24:43.229Z,7.02
2023-01-05T05:33:06.644Z,7.00
2023-01-05T05:41:29.491Z,6.98
2023-01-05T05:49:52.288Z,6.98
2023-01-05T05:58:15.123Z,6.99
2023-01-05T06:06:38.898Z,7.01
2023-01-05T06:15:01.923Z,7.01
2023-01-05T06:23:25.059Z,7.03
2023-01-05T06:31:48.071Z,7.04
2023-01-05T06:40:13.542Z,7.03
2023-01-05T06:48:37.929Z,7.03
2023-01-05T06:57:01.607Z,7.03
2023-01-05T07:05:24.976Z,7.03
2023-01-05T07:13:49.814Z,7.02
2023-01-05T07:22:13.348Z,7.04
2023-01-05T07:30:36.362Z,7.05
2023-01-05T07:38:59.766Z,7.07
2023-01-05T07:47:23.268Z,7.09
2023-01-05T07:55:55.332Z,7.11
2023-01-05T08:04:18.372Z,7.13
2023-01-05T08:13:07.411Z,7.13
2023-01-05T08:21:30.197Z,7.15
2023-01-05T08:29:53.038Z,7.17
2023-01-05T08:38:15.960Z,7.16
2023-01-05T08:46:39.353Z,7.16
2023-01-05T08:55:02.289Z,7.21
2023-01-05T09:03:25.351Z,7.39
2023-01-05T09:11:49.233Z,7.50
2023-01-05T09:20:12.013Z,7.50
2023-01-05T09:28:38.708Z,7.53
2023-01-05T09:37:01.620Z,7.57
2023-01-05T09:45:27.813Z,7.64
2023-01-05T09:53:51.206Z,7.78
2023-01-05T10:02:34.223Z,7.87
2023-01-05T10:11:25.342Z,7.89
2023-01-05T10:19:50.770Z,7.76
2023-01-05T10:28:35.844Z,7.58
2023-01-05T10:37:27.656Z,7.54
2023-01-05T10:46:19.895Z,7.52
2023-01-05T10:54:40.572Z,7.51
2023-01-05T11:03:07.463Z,7.40
2023-01-05T11:11:30.447Z,7.20
2023-01-05T11:19:56.255Z,7.12
2023-01-05T11:28:19.108Z,7.24
2023-01-05T11:36:43.784Z,7.32
2023-01-05T11:45:22.248Z,7.29
2023-01-05T11:53:48.307Z,7.22
2023-01-05T12:02:26.885Z,7.20
2023-01-05T12:11:25.972Z,7.23
2023-01-05T12:20:23.544Z,7.33
2023-01-05T12:28:51.778Z,7.50
2023-01-05T12:37:49.198Z,7.62
2023-01-05T12:46:34.769Z,7.74
2023-01-05T12:55:11.369Z,7.83
2023-01-05T13:03:41.900Z,7.84
2023-01-05T13:12:08.631Z,7.71
2023-01-05T13:20:31.348Z,7.56
2023-01-05T13:29:01.334Z,7.41
2023-01-05T13:37:52.126Z,7.27
2023-01-05T13:46:41.001Z,7.15
2023-01-05T13:55:14.403Z,7.03
2023-01-05T14:03:57.186Z,6.92
2023-01-05T14:12:20.110Z,6.69
2023-01-05T14:20:53.707Z,6.43
2023-01-05T14:29:59.836Z,6.19
2023-01-05T14:38:25.053Z,6.01
2023-01-05T14:46:56.306Z,5.89
2023-01-05T14:55:38.941Z,5.81
2023-01-05T15:04:23.874Z,5.72
2023-01-05T15:12:53.157Z,5.65
2023-01-05T15:21:52.004Z,5.62
2023-01-05T15:30:17.820Z,5.59
2023-01-05T15:38:46.808Z,5.54
2023-01-05T15:47:11.318Z,5.54
2023-01-05T15:55:34.162Z,5.58
2023-01-05T16:04:14.110Z,5.61
2023-01-05T16:12:37.165Z,5.65
2023-01-05T16:21:10.604Z,5.65
2023-01-05T16:29:45.254Z,5.69
2023-01-05T16:38:08.750Z,5.69
2023-01-05T16:46:38.752Z,5.66
2023-01-05T16:55:29.575Z,5.61
2023-01-05T17:03:53.364Z,5.58
2023-01-05T17:12:16.393Z,5.57
2023-01-05T17:20:41.498Z,5.49
2023-01-05T17:29:05.683Z,5.39
2023-01-05T17:37:28.566Z,5.24
2023-01-05T17:45:52.933Z,5.09
2023-01-05T17:54:15.765Z,4.99
2023-01-05T18:02:38.961Z,4.89
2023-01-05T18:11:06.457Z,4.80
2023-01-05T18:19:31.457Z,4.74
2023-01-05T18:27:55.336Z,4.69
2023-01-05T18:36:18.484Z,4.59
2023-01-05T18:44:41.338Z,4.41
2023-01-05T18:53:05.492Z,4.27
2023-01-05T19:01:29.967Z,4.12
2023-01-05T19:09:53.377Z,4.04
2023-01-05T19:18:16.132Z,4.00
2023-01-05T19:26:38.926Z,3.98
2023-01-05T19:35:02.164Z,3.97
2023-01-05T19:43:24.947Z,3.94
2023-01-05T19:51:48.768Z,3.93
2023-01-05T20:00:13.627Z,3.90
2023-01-05T20:08:37.388Z,3.83
2023-01-05T20:17:06.372Z,3.74
2023-01-05T20:25:29.251Z,3.63
2023-01-05T20:33:54.187Z,3.50
2023-01-05T20:42:17.123Z,3.37
2023-01-05T20:50:40.153Z,3.28
2023-01-05T20:59:11.783Z,3.22
2023-01-05T21:07:34.637Z,3.10
2023-01-05T21:16:00.459Z,3.00
2023-01-05T21:24:25.035Z,2.94
2023-01-05T21:32:47.831Z,2.90
2023-01-05T21:41:12.253Z,2.84
2023-01-05T21:49:36.100Z,2.78
2023-01-05T21:57:59.140Z,2.70
2023-01-05T22:06:21.961Z,2.58
2023-01-05T22:14:45.980Z,2.47
2023-01-05T22:23:10.187Z,2.37
2023-01-05T22:31:35.751Z,2.31
2023-01-05T22:39:58.639Z,2.21
2023-01-05T22:48:21.526Z,2.13
2023-01-05T22:56:44.316Z,2.03
2023-01-05T23:05:07.613Z,1.92
2023-01-05T23:13:30.421Z,1.81
2023-01-05T23:21:53.182Z,1.63
2023-01-05T23:30:15.998Z,1.46
2023-01-05T23:38:39.698Z,1.26
2023-01-05T23:47:02.600Z,1.15
2023-01-05T23:55:26.228Z,1.09
